createdAt,value
2017-11-18T00:01:38.839Z,145.95
2017-11-18T00:04:06.704Z,152.50
2017-11-18T00:06:34.575Z,149.60
2017-11-18T00:09:02.440Z,187.18
2017-11-18T00:11:30.307Z,174.18
2017-11-18T00:13:58.174Z,152.02
2017-11-18T00:16:25.979Z,133.27
2017-11-18T00:18:54.626Z,160.60
2017-11-18T00:21:22.501Z,170.23
2017-11-18T00:23:50.360Z,160.77
2017-11-18T00:26:18.227Z,167.05
2017-11-18T00:28:46.096Z,160.18
2017-11-18T00:31:13.964Z,162.88
2017-11-18T00:33:41.831Z,162.75
2017-11-18T00:36:09.697Z,151.63
2017-11-18T00:38:37.564Z,193.62
2017-11-18T00:41:05.432Z,180.12
2017-11-18T00:43:34.118Z,178.52
2017-11-18T00:46:01.985Z,159.20
2017-11-18T00:48:29.853Z,153.95
2017-11-18T00:50:57.722Z,150.32
2017-11-18T00:53:25.520Z,155.05
2017-11-18T00:55:54.171Z,177.18
2017-11-18T00:58:22.039Z,156.90
2017-11-18T01:00:49.907Z,177.77
2017-11-18T01:03:17.775Z,165.50
2017-11-18T01:05:45.641Z,185.12
2017-11-18T01:08:13.507Z,180.85
2017-11-18T01:10:41.381Z,175.98
2017-11-18T01:13:09.247Z,190.85
2017-11-18T01:15:37.114Z,178.87
2017-11-18T01:18:04.984Z,175.00
2017-11-18T01:20:32.844Z,188.95
2017-11-18T01:23:00.717Z,184.95
2017-11-18T01:25:28.583Z,174.65
2017-11-18T01:27:56.454Z,184.35
2017-11-18T01:30:24.316Z,175.35
2017-11-18T01:32:52.182Z,136.00
2017-11-18T01:35:20.049Z,151.77
2017-11-18T01:37:47.915Z,159.32
2017-11-18T01:40:15.782Z,126.38
2017-11-18T01:42:43.651Z,137.35
2017-11-18T01:45:11.518Z,143.82
2017-11-18T01:47:39.385Z,146.57
2017-11-18T01:50:07.252Z,158.32
2017-11-18T01:52:35.120Z,135.32
2017-11-18T01:55:03.090Z,142.82
2017-11-18T01:57:30.958Z,148.35
2017-11-18T01:59:58.824Z,130.27
2017-11-18T02:02:38.467Z,115.88
2017-11-18T02:05:06.341Z,136.35
2017-11-18T02:07:34.201Z,130.40
2017-11-18T02:10:02.173Z,134.95
2017-11-18T02:12:30.140Z,129.68
2017-11-18T02:14:58.008Z,138.60
2017-11-18T02:17:25.876Z,111.62
2017-11-18T02:19:53.744Z,146.57
2017-11-18T02:22:21.611Z,119.93
2017-11-18T02:24:49.683Z,146.48
2017-11-18T02:27:17.653Z,127.82
2017-11-18T02:29:45.623Z,131.48
2017-11-18T02:32:13.490Z,115.80
2017-11-18T02:34:41.460Z,109.03
2017-11-18T02:37:09.430Z,123.13
2017-11-18T02:39:37.299Z,108.05
2017-11-18T02:42:05.267Z,122.35
2017-11-18T02:44:33.236Z,103.05
2017-11-18T02:47:01.206Z,95.55
2017-11-18T02:49:29.074Z,98.32
2017-11-18T02:51:57.042Z,117.15
2017-11-18T02:54:24.909Z,108.15
2017-11-18T02:56:52.780Z,103.57
2017-11-18T02:59:20.746Z,101.38
2017-11-18T03:01:48.614Z,112.90
2017-11-18T03:04:16.483Z,98.12
2017-11-18T03:06:44.349Z,95.95
2017-11-18T03:09:12.216Z,107.47
2017-11-18T03:11:40.091Z,153.57
2017-11-18T03:14:07.953Z,130.02
2017-11-18T03:16:35.772Z,125.25
2017-11-18T03:19:03.686Z,107.45
2017-11-18T03:21:31.552Z,116.82
2017-11-18T03:23:59.422Z,103.80
2017-11-18T03:26:27.388Z,123.03
2017-11-18T03:28:55.260Z,95.22
2017-11-18T03:31:23.129Z,110.55
2017-11-18T03:33:50.992Z,114.35
2017-11-18T03:36:18.858Z,80.78
2017-11-18T03:38:46.729Z,116.47
2017-11-18T03:41:14.594Z,159.00
2017-11-18T03:43:42.460Z,124.87
2017-11-18T03:46:10.328Z,116.45
2017-11-18T03:48:38.195Z,156.00
2017-11-18T03:51:06.063Z,162.40
2017-11-18T03:53:33.929Z,157.75
2017-11-18T03:56:01.810Z,111.40
2017-11-18T03:58:29.665Z,127.93
2017-11-18T04:00:57.541Z,123.38
2017-11-18T04:03:25.502Z,127.75
2017-11-18T04:05:53.370Z,263.42
2017-11-18T04:08:21.237Z,155.48
2017-11-18T04:10:49.103Z,195.45
2017-11-18T04:13:16.970Z,202.40
2017-11-18T04:15:44.838Z,207.77
2017-11-18T04:18:12.706Z,210.35
2017-11-18T04:20:40.596Z,141.62
2017-11-18T04:23:08.439Z,127.22
2017-11-18T04:25:36.308Z,152.12
2017-11-18T04:28:04.174Z,184.25
2017-11-18T04:30:32.051Z,119.37
2017-11-18T04:32:59.912Z,87.82
2017-11-18T04:35:27.779Z,105.85
2017-11-18T04:37:55.854Z,87.07
2017-11-18T04:40:23.725Z,77.70
2017-11-18T04:42:51.588Z,80.10
2017-11-18T04:45:19.455Z,79.40
2017-11-18T04:47:47.324Z,78.47
2017-11-18T04:50:15.187Z,79.43
2017-11-18T04:52:43.054Z,67.47
2017-11-18T04:55:10.920Z,71.80
2017-11-18T04:57:38.794Z,57.22
2017-11-18T05:00:06.583Z,57.67
2017-11-18T05:02:35.237Z,60.25
2017-11-18T05:05:03.106Z,53.13
2017-11-18T05:07:30.973Z,57.50
2017-11-18T05:09:58.842Z,52.60
2017-11-18T05:12:26.707Z,47.17
2017-11-18T05:14:54.575Z,50.50
2017-11-18T05:17:22.442Z,53.85
2017-11-18T05:19:50.309Z,43.78
2017-11-18T05:22:18.177Z,40.95
2017-11-18T05:24:46.045Z,45.88
2017-11-18T05:27:13.911Z,61.63
2017-11-18T05:29:41.780Z,38.70
2017-11-18T05:32:09.646Z,49.08
2017-11-18T05:34:37.514Z,44.60
2017-11-18T05:37:08.379Z,44.72
2017-11-18T05:39:37.242Z,49.92
2017-11-18T05:42:05.111Z,47.42
2017-11-18T05:44:32.985Z,41.95
2017-11-18T05:47:01.662Z,39.60
2017-11-18T05:49:29.531Z,39.13
2017-11-18T05:51:57.397Z,46.13
2017-11-18T05:54:25.264Z,39.35
2017-11-18T05:56:53.132Z,38.78
2017-11-18T05:59:20.932Z,43.60
2017-11-18T06:01:49.586Z,43.70
2017-11-18T06:04:17.459Z,36.60
2017-11-18T06:06:45.318Z,43.13
2017-11-18T06:09:13.192Z,33.88
2017-11-18T06:11:41.873Z,37.30
2017-11-18T06:14:09.739Z,41.13
2017-11-18T06:16:37.606Z,30.55
2017-11-18T06:19:05.478Z,32.92
2017-11-18T06:21:33.649Z,34.08
2017-11-18T06:24:03.991Z,42.97
2017-11-18T06:26:35.732Z,37.05
2017-11-18T06:29:06.345Z,35.00
2017-11-18T06:31:38.740Z,36.85
2017-11-18T06:34:10.270Z,32.35
2017-11-18T06:38:46.985Z,46.47
2017-11-18T06:41:14.845Z,37.88
2017-11-18T06:43:42.713Z,33.42
2017-11-18T06:46:10.583Z,46.00
2017-11-18T06:48:38.556Z,47.53
2017-11-18T06:51:06.418Z,36.13
2017-11-18T06:53:34.285Z,37.10
2017-11-18T06:56:02.153Z,42.47
2017-11-18T06:58:30.019Z,45.92
2017-11-18T07:00:57.887Z,44.33
2017-11-18T07:03:25.685Z,39.20
2017-11-18T07:05:54.340Z,44.42
2017-11-18T07:08:22.208Z,50.22
2017-11-18T07:10:50.071Z,48.30
2017-11-18T07:13:17.939Z,45.53
2017-11-18T07:15:45.807Z,44.78
2017-11-18T07:18:13.675Z,42.95
2017-11-18T07:20:41.541Z,44.60
2017-11-18T07:23:09.410Z,53.87
2017-11-18T07:25:37.277Z,46.47
2017-11-18T07:28:05.144Z,46.17
2017-11-18T07:30:33.012Z,49.10
2017-11-18T07:33:00.878Z,46.83
2017-11-18T07:35:28.747Z,53.25
2017-11-18T07:37:56.614Z,47.88
2017-11-18T07:40:24.480Z,50.10
2017-11-18T07:42:52.280Z,49.42
2017-11-18T07:45:20.932Z,51.10
2017-11-18T07:47:48.804Z,50.92
2017-11-18T07:50:16.668Z,42.30
2017-11-18T07:52:44.539Z,44.45
2017-11-18T07:55:12.405Z,37.50
2017-11-18T07:57:40.273Z,42.70
2017-11-18T08:00:08.140Z,38.20
2017-11-18T08:02:36.006Z,32.88
2017-11-18T08:05:03.872Z,37.63
2017-11-18T08:07:31.738Z,34.58
2017-11-18T08:09:59.605Z,33.53
2017-11-18T08:12:27.474Z,35.65
2017-11-18T08:14:55.340Z,35.17
2017-11-18T08:17:23.208Z,29.17
2017-11-18T08:19:51.077Z,38.35
2017-11-18T08:22:18.944Z,34.75
2017-11-18T08:24:46.810Z,32.63
2017-11-18T08:27:14.677Z,33.25
2017-11-18T08:29:42.543Z,34.13
2017-11-18T08:32:10.411Z,29.25
2017-11-18T08:34:38.281Z,31.40
2017-11-18T08:37:06.148Z,26.27
2017-11-18T08:39:34.016Z,26.85
2017-11-18T08:42:01.881Z,23.85
2017-11-18T08:44:29.749Z,24.83
2017-11-18T08:46:57.621Z,23.65
2017-11-18T08:49:25.411Z,27.37
2017-11-18T08:51:54.067Z,40.97
2017-11-18T08:54:21.934Z,26.60
2017-11-18T08:56:49.800Z,20.62
2017-11-18T08:59:17.669Z,17.30
2017-11-18T09:01:45.536Z,21.25
2017-11-18T09:04:13.404Z,18.02
2017-11-18T09:06:41.373Z,25.08
2017-11-18T09:09:09.245Z,21.12
2017-11-18T09:11:37.108Z,18.37
2017-11-18T09:14:04.975Z,19.05
2017-11-18T09:16:32.843Z,22.98
2017-11-18T09:19:01.427Z,15.02
2017-11-18T09:21:29.293Z,21.27
2017-11-18T09:23:57.160Z,22.23
2017-11-18T09:26:25.032Z,27.42
2017-11-18T09:28:52.829Z,24.65
2017-11-18T09:31:21.485Z,23.27
2017-11-18T09:33:49.348Z,19.98
2017-11-18T09:36:17.215Z,20.33
2017-11-18T09:38:45.081Z,16.80
2017-11-18T09:41:12.949Z,18.27
2017-11-18T09:43:40.684Z,20.67
2017-11-18T09:46:08.415Z,25.37
2017-11-18T09:48:37.322Z,20.58
2017-11-18T09:51:05.135Z,18.58
2017-11-18T09:53:33.002Z,21.87
2017-11-18T09:56:00.873Z,23.23
2017-11-18T09:58:28.618Z,28.83
2017-11-18T10:00:56.340Z,22.08
2017-11-18T10:03:24.918Z,21.92
2017-11-18T10:05:53.499Z,25.77
2017-11-18T10:08:22.038Z,24.95
2017-11-18T10:10:49.917Z,26.62
2017-11-18T10:13:17.784Z,20.42
2017-11-18T10:15:45.651Z,28.85
2017-11-18T10:18:13.520Z,22.40
2017-11-18T10:20:41.391Z,23.27
2017-11-18T10:23:09.254Z,22.10
2017-11-18T10:25:36.971Z,22.20
2017-11-18T10:28:04.764Z,22.70
2017-11-18T10:30:32.507Z,21.70
2017-11-18T10:33:00.778Z,22.42
2017-11-18T10:35:28.549Z,22.90
2017-11-18T10:37:56.278Z,19.15
2017-11-18T10:40:23.999Z,18.87
2017-11-18T10:42:51.887Z,17.02
2017-11-18T10:45:19.751Z,18.52
2017-11-18T10:47:47.627Z,14.68
2017-11-18T10:50:15.486Z,14.07
2017-11-18T10:52:43.357Z,11.30
2017-11-18T10:55:11.221Z,11.27
2017-11-18T10:57:39.300Z,15.82
2017-11-18T11:00:07.162Z,21.60
2017-11-18T11:02:35.035Z,10.73
2017-11-18T11:05:03.001Z,18.35
2017-11-18T11:07:30.867Z,17.55
2017-11-18T11:09:58.733Z,14.32
2017-11-18T11:12:27.116Z,17.20
2017-11-18T11:14:54.984Z,11.38
2017-11-18T11:17:22.848Z,14.35
2017-11-18T11:19:50.816Z,12.60
2017-11-18T11:22:18.684Z,16.40
2017-11-18T11:24:46.550Z,16.83
2017-11-18T11:27:14.417Z,15.73
2017-11-18T11:29:42.287Z,26.17
2017-11-18T11:32:10.152Z,17.00
2017-11-18T11:34:38.021Z,16.33
2017-11-18T11:37:05.888Z,14.25
2017-11-18T11:39:33.755Z,14.18
2017-11-18T11:42:01.625Z,18.37
2017-11-18T11:44:29.387Z,11.98
2017-11-18T11:46:57.440Z,15.18
2017-11-18T11:49:25.207Z,14.85
2017-11-18T11:51:52.987Z,15.63
2017-11-18T11:54:20.776Z,11.23
2017-11-18T11:56:48.623Z,12.07
2017-11-18T11:59:16.362Z,10.00
2017-11-18T12:01:44.100Z,8.68
2017-11-18T12:04:12.031Z,12.73
2017-11-18T12:06:39.886Z,10.63
2017-11-18T12:09:07.752Z,11.12
2017-11-18T12:11:35.512Z,10.40
2017-11-18T12:14:03.391Z,15.57
2017-11-18T12:16:31.184Z,8.35
2017-11-18T12:18:59.706Z,10.35
2017-11-18T12:21:27.601Z,11.80
2017-11-18T12:23:55.366Z,9.50
2017-11-18T12:26:23.234Z,13.43
2017-11-18T12:28:51.101Z,8.60
2017-11-18T12:31:18.968Z,14.55
2017-11-18T12:33:46.694Z,9.45
2017-11-18T12:36:14.600Z,8.43
2017-11-18T12:38:42.569Z,10.25
2017-11-18T12:41:10.339Z,10.13
2017-11-18T12:43:38.092Z,10.85
2017-11-18T12:46:05.875Z,7.03
2017-11-18T12:48:33.733Z,11.23
2017-11-18T12:51:01.600Z,13.57
2017-11-18T12:53:29.356Z,10.57
2017-11-18T12:55:57.131Z,6.60
2017-11-18T12:58:24.884Z,10.10
2017-11-18T13:00:52.623Z,9.93
2017-11-18T13:03:20.389Z,9.48
2017-11-18T13:05:48.123Z,8.75
2017-11-18T13:08:16.649Z,10.45
2017-11-18T13:10:44.403Z,4.90
2017-11-18T13:13:12.114Z,8.70
2017-11-18T13:15:39.836Z,7.90
2017-11-18T13:18:07.556Z,11.00
2017-11-18T13:20:36.031Z,6.57
2017-11-18T13:23:03.756Z,10.35
2017-11-18T13:25:31.639Z,8.35
2017-11-18T13:27:59.511Z,9.45
2017-11-18T13:30:27.374Z,8.10
2017-11-18T13:32:55.245Z,7.57
2017-11-18T13:35:23.108Z,10.75
2017-11-18T13:37:50.976Z,15.23
2017-11-18T13:40:18.843Z,7.65
2017-11-18T13:42:46.710Z,11.32
2017-11-18T13:45:14.578Z,8.50
2017-11-18T13:47:42.449Z,14.43
2017-11-18T13:50:10.209Z,7.45
2017-11-18T13:52:38.078Z,6.55
2017-11-18T13:55:05.945Z,9.48
2017-11-18T13:57:33.812Z,13.50
2017-11-18T14:00:01.679Z,10.40
2017-11-18T14:02:29.546Z,12.40
2017-11-18T14:04:57.414Z,13.30
2017-11-18T14:07:25.281Z,9.00
2017-11-18T14:09:53.147Z,6.12
2017-11-18T14:12:21.015Z,16.45
2017-11-18T14:14:48.786Z,10.10
2017-11-18T14:17:16.652Z,7.03
2017-11-18T14:19:44.361Z,6.78
2017-11-18T14:22:12.136Z,11.50
2017-11-18T14:24:39.912Z,10.02
2017-11-18T14:27:07.814Z,10.68
2017-11-18T14:29:35.680Z,8.30
2017-11-18T14:32:03.425Z,11.20
2017-11-18T14:34:31.209Z,6.85
2017-11-18T14:36:58.969Z,8.52
2017-11-18T14:39:26.739Z,11.80
2017-11-18T14:41:54.604Z,11.00
2017-11-18T14:44:22.475Z,16.83
2017-11-18T14:46:50.338Z,8.60
2017-11-18T14:49:18.214Z,9.48
2017-11-18T14:51:46.075Z,7.10
2017-11-18T14:54:13.942Z,18.08
2017-11-18T14:56:41.810Z,5.35
2017-11-18T14:59:09.782Z,9.02
2017-11-18T15:01:38.372Z,8.35
2017-11-18T15:04:06.176Z,9.85
2017-11-18T15:06:34.788Z,13.02
2017-11-18T15:09:02.784Z,11.25
2017-11-18T15:11:30.649Z,9.77
2017-11-18T15:13:58.483Z,5.93
2017-11-18T15:16:31.915Z,11.18
2017-11-18T15:19:16.576Z,7.72
2017-11-18T15:21:50.004Z,6.82
2017-11-18T15:24:24.293Z,10.00
2017-11-18T15:26:57.700Z,14.00
2017-11-18T15:29:41.240Z,8.13
2017-11-18T15:32:14.693Z,9.57
2017-11-18T15:34:53.128Z,8.57
2017-11-18T15:37:26.563Z,9.07
2017-11-18T15:39:55.325Z,7.37
2017-11-18T15:42:23.160Z,9.00
2017-11-18T15:44:55.543Z,6.85
2017-11-18T15:47:36.133Z,9.40
2017-11-18T15:50:09.555Z,11.32
2017-11-18T15:52:43.175Z,5.95
2017-11-18T15:55:30.860Z,13.43
2017-11-18T15:58:03.233Z,10.38
2017-11-18T16:00:31.202Z,14.90
2017-11-18T16:03:00.956Z,12.50
2017-11-18T16:05:29.551Z,9.02
2017-11-18T16:07:57.382Z,9.05
2017-11-18T16:10:25.171Z,9.35
2017-11-18T16:12:53.722Z,11.63
2017-11-18T16:15:22.236Z,7.35
2017-11-18T16:17:50.881Z,10.88
2017-11-18T16:20:18.677Z,9.05
2017-11-18T16:22:47.230Z,8.32
2017-11-18T16:25:15.018Z,6.32
2017-11-18T16:27:42.795Z,11.27
2017-11-18T16:30:11.449Z,12.50
2017-11-18T16:32:39.317Z,11.90
2017-11-18T16:35:07.080Z,20.05
2017-11-18T16:37:34.877Z,5.90
2017-11-18T16:40:03.428Z,13.10
2017-11-18T16:42:31.538Z,7.40
2017-11-18T16:45:01.352Z,9.20
2017-11-18T16:47:30.000Z,6.85
2017-11-18T16:49:57.867Z,10.57
2017-11-18T16:52:25.735Z,6.00
2017-11-18T16:54:53.615Z,9.70
2017-11-18T16:57:22.292Z,6.60
2017-11-18T16:59:50.157Z,5.90
2017-11-18T17:02:18.024Z,8.27
2017-11-18T17:04:45.891Z,7.95
2017-11-18T17:07:13.772Z,11.25
2017-11-18T17:09:41.650Z,4.90
2017-11-18T17:12:09.419Z,9.30
2017-11-18T17:14:37.258Z,6.72
2017-11-18T17:17:05.125Z,7.80
2017-11-18T17:19:32.906Z,8.85
2017-11-18T17:22:00.697Z,5.75
2017-11-18T17:24:29.356Z,7.12
2017-11-18T17:26:57.850Z,11.63
2017-11-18T17:29:25.641Z,12.13
2017-11-18T17:31:53.557Z,5.05
2017-11-18T17:34:21.338Z,4.68
2017-11-18T17:36:49.303Z,10.63
2017-11-18T17:39:17.265Z,5.32
2017-11-18T17:41:46.587Z,3.33
2017-11-18T17:44:14.371Z,5.55
2017-11-18T17:46:43.018Z,5.35
2017-11-18T17:49:10.792Z,6.37
2017-11-18T17:51:38.581Z,5.32
2017-11-18T17:54:07.121Z,7.35
2017-11-18T17:56:35.872Z,6.00
2017-11-18T17:59:03.783Z,7.45
2017-11-18T18:01:31.548Z,6.68
2017-11-18T18:03:59.416Z,5.12
2017-11-18T18:06:27.293Z,3.90
2017-11-18T18:08:56.177Z,7.85
2017-11-18T18:11:25.303Z,3.47
2017-11-18T18:13:53.846Z,7.00
2017-11-18T18:16:21.623Z,8.55
2017-11-18T18:18:49.489Z,7.37
2017-11-18T18:21:17.355Z,5.12
2017-11-18T18:23:45.095Z,6.47
2017-11-18T18:26:12.814Z,14.30
2017-11-18T18:28:41.290Z,4.97
2017-11-18T18:31:09.011Z,6.65
2017-11-18T18:33:36.735Z,10.15
2017-11-18T18:36:05.257Z,11.23
2017-11-18T18:38:32.997Z,8.05
2017-11-18T18:41:00.721Z,7.43
2017-11-18T18:43:28.571Z,6.85
2017-11-18T18:45:56.303Z,7.95
2017-11-18T18:48:24.205Z,7.05
2017-11-18T18:50:52.078Z,12.00
2017-11-18T18:53:19.854Z,11.98
2017-11-18T18:55:47.627Z,72.65
2017-11-18T18:58:16.288Z,51.17
2017-11-18T19:00:44.056Z,47.08
2017-11-18T19:03:11.781Z,9.35
2017-11-18T19:05:39.626Z,10.75
2017-11-18T19:08:08.167Z,7.90
2017-11-18T19:10:36.136Z,6.97
2017-11-18T19:13:04.003Z,8.75
2017-11-18T19:15:31.870Z,9.52
2017-11-18T19:17:59.746Z,10.65
2017-11-18T19:20:27.604Z,9.35
2017-11-18T19:22:55.472Z,7.95
2017-11-18T19:25:24.012Z,12.70
2017-11-18T19:27:51.821Z,9.02
2017-11-18T19:30:19.616Z,13.05
2017-11-18T19:32:48.169Z,9.65
2017-11-18T19:35:15.964Z,7.53
2017-11-18T19:37:43.801Z,8.57
2017-11-18T19:40:11.673Z,9.82
2017-11-18T19:42:39.537Z,6.85
2017-11-18T19:45:07.405Z,8.30
2017-11-18T19:47:35.169Z,12.65
2017-11-18T19:50:02.913Z,9.52
2017-11-18T19:52:30.795Z,6.85
2017-11-18T19:54:58.668Z,9.13
2017-11-18T19:57:26.400Z,7.97
2017-11-18T19:59:54.119Z,10.23
2017-11-18T20:02:21.963Z,9.23
2017-11-18T20:04:49.915Z,10.73
2017-11-18T20:07:17.704Z,10.32
2017-11-18T20:09:45.480Z,11.43
2017-11-18T20:12:13.204Z,9.63
2017-11-18T20:14:41.095Z,13.45
2017-11-18T20:17:08.969Z,12.63
2017-11-18T20:19:36.830Z,10.02
2017-11-18T20:22:04.800Z,9.77
2017-11-18T20:24:32.667Z,11.27
2017-11-18T20:27:00.534Z,9.93
2017-11-18T20:29:28.406Z,14.95
2017-11-18T20:31:56.269Z,11.20
2017-11-18T20:34:24.135Z,13.98
2017-11-18T20:36:52.003Z,9.70
2017-11-18T20:39:19.874Z,14.02
2017-11-18T20:41:47.738Z,10.50
2017-11-18T20:44:15.606Z,11.25
2017-11-18T20:46:43.474Z,12.68
2017-11-18T20:49:11.339Z,10.65
2017-11-18T20:51:39.207Z,15.63
2017-11-18T20:54:07.075Z,14.60
2017-11-18T20:56:34.946Z,13.60
2017-11-18T20:59:02.812Z,15.13
2017-11-18T21:01:30.678Z,17.62
2017-11-18T21:03:58.544Z,15.70
2017-11-18T21:06:26.420Z,15.60
2017-11-18T21:08:54.132Z,17.48
2017-11-18T21:11:21.878Z,16.48
2017-11-18T21:13:50.356Z,14.18
2017-11-18T21:16:18.906Z,12.45
2017-11-18T21:18:46.771Z,34.97
2017-11-18T21:21:14.499Z,21.23
2017-11-18T21:23:42.227Z,13.73
2017-11-18T21:26:09.943Z,14.13
2017-11-18T21:28:37.662Z,14.30
2017-11-18T21:31:06.313Z,14.52
2017-11-18T21:33:34.179Z,14.73
2017-11-18T21:36:02.048Z,15.80
2017-11-18T21:38:29.914Z,19.65
2017-11-18T21:40:57.783Z,14.90
2017-11-18T21:43:25.649Z,17.73
2017-11-18T21:45:53.516Z,15.38
2017-11-18T21:48:21.392Z,18.08
2017-11-18T21:50:49.251Z,15.10
2017-11-18T21:53:22.991Z,16.45
2017-11-18T21:55:51.540Z,17.20
2017-11-18T21:58:19.408Z,19.98
2017-11-18T22:00:47.275Z,17.73
2017-11-18T22:03:15.143Z,17.67
2017-11-18T22:05:42.866Z,20.55
2017-11-18T22:08:10.671Z,18.27
2017-11-18T22:10:38.540Z,19.92
2017-11-18T22:13:06.406Z,20.42
2017-11-18T22:15:34.279Z,20.75
2017-11-18T22:18:02.141Z,35.30
2017-11-18T22:20:29.906Z,18.55
2017-11-18T22:22:57.771Z,19.35
2017-11-18T22:25:25.640Z,16.35
2017-11-18T22:27:53.510Z,16.55
2017-11-18T22:30:21.279Z,22.33
2017-11-18T22:32:49.023Z,17.67
2017-11-18T22:35:16.904Z,20.35
2017-11-18T22:37:44.772Z,18.65
2017-11-18T22:40:12.499Z,24.67
2017-11-18T22:42:40.224Z,15.07
2017-11-18T22:45:08.719Z,18.75
2017-11-18T22:47:37.207Z,18.73
2017-11-18T22:50:05.698Z,18.60
2017-11-18T22:52:33.516Z,16.10
2017-11-18T22:55:01.379Z,17.35
2017-11-18T22:57:29.246Z,16.23
2017-11-18T22:59:57.116Z,18.60
2017-11-18T23:02:24.856Z,16.60
2017-11-18T23:04:52.589Z,20.23
2017-11-18T23:07:21.229Z,18.77
2017-11-18T23:09:49.097Z,17.52
2017-11-18T23:12:16.964Z,16.30
2017-11-18T23:14:44.713Z,22.62
2017-11-18T23:17:12.429Z,15.43
2017-11-18T23:19:40.915Z,13.30
2017-11-18T23:22:09.410Z,13.80
2017-11-18T23:24:37.140Z,15.13
2017-11-18T23:27:04.986Z,14.98
2017-11-18T23:29:33.775Z,14.50
2017-11-18T23:32:01.642Z,16.87
2017-11-18T23:34:31.596Z,12.65
2017-11-18T23:37:00.080Z,18.15
2017-11-18T23:39:37.907Z,41.83
2017-11-18T23:42:06.118Z,27.25
2017-11-18T23:44:34.094Z,29.90
2017-11-18T23:47:02.067Z,18.62
2017-11-18T23:49:31.208Z,14.63
2017-11-18T23:52:00.660Z,15.00
2017-11-18T23:54:51.065Z,17.25
2017-11-18T23:57:20.325Z,13.10
2017-11-18T23:59:50.070Z,13.02
